sensor_id;sensor_type;location;lat;lon;timestamp;temperature;humidity
12039;DHT22;6080;48.818;9.526;2022-07-23T00:01:31;24.90;99.90
12039;DHT22;6080;48.818;9.526;2022-07-23T00:03:57;24.90;99.90
12039;DHT22;6080;48.818;9.526;2022-07-23T00:06:24;25.00;99.90
12039;DHT22;6080;48.818;9.526;2022-07-23T00:08:50;25.10;99.90
12039;DHT22;6080;48.818;9.526;2022-07-23T00:11:16;25.10;99.90
12039;DHT22;6080;48.818;9.526;2022-07-23T00:13:42;25.10;99.90
12039;DHT22;6080;48.818;9.526;2022-07-23T00:16:08;25.10;99.90
12039;DHT22;6080;48.818;9.526;2022-07-23T00:18:34;25.10;99.90
12039;DHT22;6080;48.818;9.526;2022-07-23T00:21:00;25.00;99.90
12039;DHT22;6080;48.818;9.526;2022-07-23T00:23:26;25.00;99.90
12039;DHT22;6080;48.818;9.526;2022-07-23T00:25:54;25.10;99.90
12039;DHT22;6080;48.818;9.526;2022-07-23T00:28:19;25.10;99.90
12039;DHT22;6080;48.818;9.526;2022-07-23T00:30:45;25.00;99.90
12039;DHT22;6080;48.818;9.526;2022-07-23T00:33:13;25.10;99.90
12039;DHT22;6080;48.818;9.526;2022-07-23T00:35:40;25.10;99.90
12039;DHT22;6080;48.818;9.526;2022-07-23T00:38:08;25.00;99.90
12039;DHT22;6080;48.818;9.526;2022-07-23T00:40:35;24.90;99.90
12039;DHT22;6080;48.818;9.526;2022-07-23T00:43:01;24.90;99.90
12039;DHT22;6080;48.818;9.526;2022-07-23T00:45:28;24.90;99.90
12039;DHT22;6080;48.818;9.526;2022-07-23T00:47:54;24.90;99.90
12039;DHT22;6080;48.818;9.526;2022-07-23T00:50:20;24.90;99.90
12039;DHT22;6080;48.818;9.526;2022-07-23T00:52:46;24.90;99.90
12039;DHT22;6080;48.818;9.526;2022-07-23T00:55:12;24.90;99.90
12039;DHT22;6080;48.818;9.526;2022-07-23T00:57:39;24.90;99.90
12039;DHT22;6080;48.818;9.526;2022-07-23T01:00:08;24.90;99.90
12039;DHT22;6080;48.818;9.526;2022-07-23T01:02:35;24.90;99.90
12039;DHT22;6080;48.818;9.526;2022-07-23T01:05:01;24.90;99.90
12039;DHT22;6080;48.818;9.526;2022-07-23T01:07:27;24.90;99.90
12039;DHT22;6080;48.818;9.526;2022-07-23T01:09:54;24.70;99.90
12039;DHT22;6080;48.818;9.526;2022-07-23T01:12:20;24.60;99.90
12039;DHT22;6080;48.818;9.526;2022-07-23T01:14:57;24.60;99.90
12039;DHT22;6080;48.818;9.526;2022-07-23T01:17:23;24.50;99.90
12039;DHT22;6080;48.818;9.526;2022-07-23T01:19:49;24.50;99.90
12039;DHT22;6080;48.818;9.526;2022-07-23T01:22:15;24.50;99.90
12039;DHT22;6080;48.818;9.526;2022-07-23T01:24:43;24.50;99.90
12039;DHT22;6080;48.818;9.526;2022-07-23T01:27:09;24.50;99.90
12039;DHT22;6080;48.818;9.526;2022-07-23T01:29:35;24.50;99.90
12039;DHT22;6080;48.818;9.526;2022-07-23T01:32:00;24.50;99.90
12039;DHT22;6080;48.818;9.526;2022-07-23T01:34:26;24.50;99.90
12039;DHT22;6080;48.818;9.526;2022-07-23T01:36:52;24.50;99.90
12039;DHT22;6080;48.818;9.526;2022-07-23T01:39:18;24.50;99.90
12039;DHT22;6080;48.818;9.526;2022-07-23T01:41:43;24.50;99.90
12039;DHT22;6080;48.818;9.526;2022-07-23T01:44:09;24.50;99.90
12039;DHT22;6080;48.818;9.526;2022-07-23T01:46:35;24.50;99.90
12039;DHT22;6080;48.818;9.526;2022-07-23T01:49:01;24.50;99.90
12039;DHT22;6080;48.818;9.526;2022-07-23T01:51:26;24.50;99.90
12039;DHT22;6080;48.818;9.526;2022-07-23T01:53:52;24.50;99.90
12039;DHT22;6080;48.818;9.526;2022-07-23T01:56:18;24.50;99.90
12039;DHT22;6080;48.818;9.526;2022-07-23T01:58:47;24.50;99.90
12039;DHT22;6080;48.818;9.526;2022-07-23T02:01:13;24.40;99.90
12039;DHT22;6080;48.818;9.526;2022-07-23T02:03:38;24.50;99.90
12039;DHT22;6080;48.818;9.526;2022-07-23T02:06:04;24.40;99.90
12039;DHT22;6080;48.818;9.526;2022-07-23T02:08:30;24.40;99.90
12039;DHT22;6080;48.818;9.526;2022-07-23T02:10:56;24.30;99.90
12039;DHT22;6080;48.818;9.526;2022-07-23T02:13:22;24.30;99.90
12039;DHT22;6080;48.818;9.526;2022-07-23T02:15:48;24.20;99.90
12039;DHT22;6080;48.818;9.526;2022-07-23T02:18:14;24.10;99.90
12039;DHT22;6080;48.818;9.526;2022-07-23T02:20:40;24.00;99.90
12039;DHT22;6080;48.818;9.526;2022-07-23T02:23:06;23.90;99.90
12039;DHT22;6080;48.818;9.526;2022-07-23T02:25:33;23.80;99.90
12039;DHT22;6080;48.818;9.526;2022-07-23T02:27:59;23.80;99.90
12039;DHT22;6080;48.818;9.526;2022-07-23T02:30:25;23.70;99.90
12039;DHT22;6080;48.818;9.526;2022-07-23T02:32:51;23.70;99.90
12039;DHT22;6080;48.818;9.526;2022-07-23T02:35:17;23.70;99.90
12039;DHT22;6080;48.818;9.526;2022-07-23T02:37:46;23.50;99.90
12039;DHT22;6080;48.818;9.526;2022-07-23T02:40:12;23.50;99.90
12039;DHT22;6080;48.818;9.526;2022-07-23T02:42:38;23.40;99.90
12039;DHT22;6080;48.818;9.526;2022-07-23T02:45:04;23.30;99.90
12039;DHT22;6080;48.818;9.526;2022-07-23T02:47:30;23.30;99.90
12039;DHT22;6080;48.818;9.526;2022-07-23T02:49:57;23.30;99.90
12039;DHT22;6080;48.818;9.526;2022-07-23T02:52:23;23.30;99.90
12039;DHT22;6080;48.818;9.526;2022-07-23T02:54:49;23.30;99.90
12039;DHT22;6080;48.818;9.526;2022-07-23T02:57:14;23.30;99.90
12039;DHT22;6080;48.818;9.526;2022-07-23T02:59:40;23.20;99.90
12039;DHT22;6080;48.818;9.526;2022-07-23T03:02:06;23.10;99.90
12039;DHT22;6080;48.818;9.526;2022-07-23T03:04:32;23.10;99.90
12039;DHT22;6080;48.818;9.526;2022-07-23T03:06:58;23.00;99.90
12039;DHT22;6080;48.818;9.526;2022-07-23T03:09:23;23.00;99.90
12039;DHT22;6080;48.818;9.526;2022-07-23T03:11:49;22.90;99.90
12039;DHT22;6080;48.818;9.526;2022-07-23T03:14:15;22.90;99.90
12039;DHT22;6080;48.818;9.526;2022-07-23T03:16:42;22.90;99.90
12039;DHT22;6080;48.818;9.526;2022-07-23T03:19:07;22.80;99.90
12039;DHT22;6080;48.818;9.526;2022-07-23T03:21:33;22.80;99.90
12039;DHT22;6080;48.818;9.526;2022-07-23T03:24:00;22.70;99.90
12039;DHT22;6080;48.818;9.526;2022-07-23T03:26:26;22.70;99.90
12039;DHT22;6080;48.818;9.526;2022-07-23T03:28:51;22.60;99.90
12039;DHT22;6080;48.818;9.526;2022-07-23T03:31:20;22.50;99.90
12039;DHT22;6080;48.818;9.526;2022-07-23T03:33:45;22.50;99.90
12039;DHT22;6080;48.818;9.526;2022-07-23T03:36:11;22.50;99.90
12039;DHT22;6080;48.818;9.526;2022-07-23T03:38:37;22.50;99.90
12039;DHT22;6080;48.818;9.526;2022-07-23T03:41:03;22.40;99.90
12039;DHT22;6080;48.818;9.526;2022-07-23T03:43:28;22.30;99.90
12039;DHT22;6080;48.818;9.526;2022-07-23T03:45:54;22.30;99.90
12039;DHT22;6080;48.818;9.526;2022-07-23T03:48:20;22.20;99.90
12039;DHT22;6080;48.818;9.526;2022-07-23T03:50:46;22.10;99.90
12039;DHT22;6080;48.818;9.526;2022-07-23T03:53:12;22.00;99.90
12039;DHT22;6080;48.818;9.526;2022-07-23T03:55:38;22.00;99.90
12039;DHT22;6080;48.818;9.526;2022-07-23T03:58:04;22.00;99.90
12039;DHT22;6080;48.818;9.526;2022-07-23T04:00:30;21.90;99.90
12039;DHT22;6080;48.818;9.526;2022-07-23T04:02:56;21.90;99.90
12039;DHT22;6080;48.818;9.526;2022-07-23T04:05:21;21.80;99.90
12039;DHT22;6080;48.818;9.526;2022-07-23T04:07:47;21.80;99.90
12039;DHT22;6080;48.818;9.526;2022-07-23T04:10:13;21.80;99.90
12039;DHT22;6080;48.818;9.526;2022-07-23T04:12:39;21.70;99.90
12039;DHT22;6080;48.818;9.526;2022-07-23T04:15:07;21.70;99.90
12039;DHT22;6080;48.818;9.526;2022-07-23T04:17:33;21.70;99.90
12039;DHT22;6080;48.818;9.526;2022-07-23T04:19:59;21.60;99.90
12039;DHT22;6080;48.818;9.526;2022-07-23T04:22:25;21.70;99.90
12039;DHT22;6080;48.818;9.526;2022-07-23T04:24:51;21.70;99.90
12039;DHT22;6080;48.818;9.526;2022-07-23T04:27:16;21.70;99.90
12039;DHT22;6080;48.818;9.526;2022-07-23T04:29:42;21.80;99.90
12039;DHT22;6080;48.818;9.526;2022-07-23T04:32:08;21.80;99.90
12039;DHT22;6080;48.818;9.526;2022-07-23T04:34:34;22.00;99.90
12039;DHT22;6080;48.818;9.526;2022-07-23T04:36:59;22.10;99.90
12039;DHT22;6080;48.818;9.526;2022-07-23T04:39:25;22.30;99.90
12039;DHT22;6080;48.818;9.526;2022-07-23T04:41:51;22.40;99.90
12039;DHT22;6080;48.818;9.526;2022-07-23T04:44:17;22.50;99.90
12039;DHT22;6080;48.818;9.526;2022-07-23T04:46:43;22.60;99.90
12039;DHT22;6080;48.818;9.526;2022-07-23T04:49:08;22.70;99.90
12039;DHT22;6080;48.818;9.526;2022-07-23T04:51:34;22.80;99.90
12039;DHT22;6080;48.818;9.526;2022-07-23T04:54:00;22.80;99.90
12039;DHT22;6080;48.818;9.526;2022-07-23T04:56:26;22.90;99.90
12039;DHT22;6080;48.818;9.526;2022-07-23T04:58:51;22.90;99.90
12039;DHT22;6080;48.818;9.526;2022-07-23T05:01:17;22.90;99.90
12039;DHT22;6080;48.818;9.526;2022-07-23T05:03:43;23.00;99.90
12039;DHT22;6080;48.818;9.526;2022-07-23T05:06:09;23.20;99.90
12039;DHT22;6080;48.818;9.526;2022-07-23T05:08:35;23.30;99.90
12039;DHT22;6080;48.818;9.526;2022-07-23T05:11:00;23.50;99.90
12039;DHT22;6080;48.818;9.526;2022-07-23T05:13:26;23.70;99.90
12039;DHT22;6080;48.818;9.526;2022-07-23T05:15:52;23.90;99.90
12039;DHT22;6080;48.818;9.526;2022-07-23T05:18:18;24.00;99.90
12039;DHT22;6080;48.818;9.526;2022-07-23T05:20:44;24.00;99.90
12039;DHT22;6080;48.818;9.526;2022-07-23T05:23:09;24.10;99.90
12039;DHT22;6080;48.818;9.526;2022-07-23T05:25:36;24.10;99.90
12039;DHT22;6080;48.818;9.526;2022-07-23T05:28:01;24.20;99.90
12039;DHT22;6080;48.818;9.526;2022-07-23T05:30:27;24.10;99.90
12039;DHT22;6080;48.818;9.526;2022-07-23T05:32:53;24.10;99.90
12039;DHT22;6080;48.818;9.526;2022-07-23T05:35:19;24.20;99.90
12039;DHT22;6080;48.818;9.526;2022-07-23T05:37:45;24.30;99.90
12039;DHT22;6080;48.818;9.526;2022-07-23T05:40:11;24.30;99.90
12039;DHT22;6080;48.818;9.526;2022-07-23T05:42:38;24.30;99.90
12039;DHT22;6080;48.818;9.526;2022-07-23T05:45:05;24.20;99.90
12039;DHT22;6080;48.818;9.526;2022-07-23T05:47:45;24.20;99.90
12039;DHT22;6080;48.818;9.526;2022-07-23T05:50:11;24.30;99.90
12039;DHT22;6080;48.818;9.526;2022-07-23T05:52:38;24.50;99.90
12039;DHT22;6080;48.818;9.526;2022-07-23T05:55:05;25.10;99.90
12039;DHT22;6080;48.818;9.526;2022-07-23T05:57:31;25.90;99.90
12039;DHT22;6080;48.818;9.526;2022-07-23T05:59:57;26.50;99.90
12039;DHT22;6080;48.818;9.526;2022-07-23T06:02:23;26.50;99.90
12039;DHT22;6080;48.818;9.526;2022-07-23T06:04:49;26.20;99.90
12039;DHT22;6080;48.818;9.526;2022-07-23T06:07:14;25.90;99.90
12039;DHT22;6080;48.818;9.526;2022-07-23T06:09:40;25.50;99.90
12039;DHT22;6080;48.818;9.526;2022-07-23T06:12:06;25.30;99.90
12039;DHT22;6080;48.818;9.526;2022-07-23T06:14:32;25.20;99.90
12039;DHT22;6080;48.818;9.526;2022-07-23T06:16:58;25.20;99.90
12039;DHT22;6080;48.818;9.526;2022-07-23T06:19:25;25.20;99.90
12039;DHT22;6080;48.818;9.526;2022-07-23T06:21:51;25.30;99.90
12039;DHT22;6080;48.818;9.526;2022-07-23T06:24:16;25.40;99.90
12039;DHT22;6080;48.818;9.526;2022-07-23T06:26:42;25.50;99.90
12039;DHT22;6080;48.818;9.526;2022-07-23T06:29:08;25.60;99.90
12039;DHT22;6080;48.818;9.526;2022-07-23T06:31:34;25.80;99.90
12039;DHT22;6080;48.818;9.526;2022-07-23T06:34:00;25.80;99.90
12039;DHT22;6080;48.818;9.526;2022-07-23T06:36:26;26.00;99.90
12039;DHT22;6080;48.818;9.526;2022-07-23T06:38:52;26.30;99.90
12039;DHT22;6080;48.818;9.526;2022-07-23T06:41:18;26.40;99.90
12039;DHT22;6080;48.818;9.526;2022-07-23T06:43:44;26.60;99.90
12039;DHT22;6080;48.818;9.526;2022-07-23T06:46:09;26.70;99.90
12039;DHT22;6080;48.818;9.526;2022-07-23T06:48:35;27.00;99.90
12039;DHT22;6080;48.818;9.526;2022-07-23T06:51:02;27.10;99.90
12039;DHT22;6080;48.818;9.526;2022-07-23T06:53:28;27.30;99.90
12039;DHT22;6080;48.818;9.526;2022-07-23T06:55:54;27.30;99.90
12039;DHT22;6080;48.818;9.526;2022-07-23T06:58:20;27.10;99.90
12039;DHT22;6080;48.818;9.526;2022-07-23T07:00:46;26.90;99.90
12039;DHT22;6080;48.818;9.526;2022-07-23T07:03:12;26.50;99.90
12039;DHT22;6080;48.818;9.526;2022-07-23T07:05:38;26.30;99.90
12039;DHT22;6080;48.818;9.526;2022-07-23T07:08:05;26.20;99.90
12039;DHT22;6080;48.818;9.526;2022-07-23T07:10:31;26.30;99.90
12039;DHT22;6080;48.818;9.526;2022-07-23T07:12:57;26.40;99.90
12039;DHT22;6080;48.818;9.526;2022-07-23T07:15:23;26.60;99.90
12039;DHT22;6080;48.818;9.526;2022-07-23T07:17:49;26.50;99.90
12039;DHT22;6080;48.818;9.526;2022-07-23T07:20:15;26.40;99.90
12039;DHT22;6080;48.818;9.526;2022-07-23T07:22:41;26.20;99.90
12039;DHT22;6080;48.818;9.526;2022-07-23T07:25:07;26.10;99.90
12039;DHT22;6080;48.818;9.526;2022-07-23T07:27:33;26.00;99.90
12039;DHT22;6080;48.818;9.526;2022-07-23T07:29:59;25.70;99.90
12039;DHT22;6080;48.818;9.526;2022-07-23T07:32:25;25.50;99.90
12039;DHT22;6080;48.818;9.526;2022-07-23T07:34:51;25.20;99.90
12039;DHT22;6080;48.818;9.526;2022-07-23T07:37:17;25.00;99.90
12039;DHT22;6080;48.818;9.526;2022-07-23T07:39:42;24.90;99.90
12039;DHT22;6080;48.818;9.526;2022-07-23T07:42:08;24.90;99.90
12039;DHT22;6080;48.818;9.526;2022-07-23T07:44:34;25.00;99.90
12039;DHT22;6080;48.818;9.526;2022-07-23T07:47:00;25.10;99.90
12039;DHT22;6080;48.818;9.526;2022-07-23T07:49:25;25.20;99.90
12039;DHT22;6080;48.818;9.526;2022-07-23T07:51:51;25.20;99.90
12039;DHT22;6080;48.818;9.526;2022-07-23T07:54:17;25.20;99.90
12039;DHT22;6080;48.818;9.526;2022-07-23T07:56:43;25.30;99.90
12039;DHT22;6080;48.818;9.526;2022-07-23T07:59:08;25.30;99.90
12039;DHT22;6080;48.818;9.526;2022-07-23T08:01:34;25.20;99.90
12039;DHT22;6080;48.818;9.526;2022-07-23T08:04:00;25.10;99.90
12039;DHT22;6080;48.818;9.526;2022-07-23T08:06:26;25.10;99.90
12039;DHT22;6080;48.818;9.526;2022-07-23T08:08:52;25.20;99.90
12039;DHT22;6080;48.818;9.526;2022-07-23T08:11:17;25.30;99.90
12039;DHT22;6080;48.818;9.526;2022-07-23T08:13:43;25.30;99.90
12039;DHT22;6080;48.818;9.526;2022-07-23T08:16:11;25.50;99.90
12039;DHT22;6080;48.818;9.526;2022-07-23T08:18:36;25.70;99.90
12039;DHT22;6080;48.818;9.526;2022-07-23T08:21:03;26.40;99.90
12039;DHT22;6080;48.818;9.526;2022-07-23T08:23:31;27.10;99.90
12039;DHT22;6080;48.818;9.526;2022-07-23T08:25:57;27.80;99.90
12039;DHT22;6080;48.818;9.526;2022-07-23T08:28:25;28.20;99.90
12039;DHT22;6080;48.818;9.526;2022-07-23T08:30:51;28.60;99.90
12039;DHT22;6080;48.818;9.526;2022-07-23T08:33:18;28.20;99.90
12039;DHT22;6080;48.818;9.526;2022-07-23T08:35:47;28.00;99.90
12039;DHT22;6080;48.818;9.526;2022-07-23T08:38:15;28.50;99.90
12039;DHT22;6080;48.818;9.526;2022-07-23T08:40:44;29.30;99.90
12039;DHT22;6080;48.818;9.526;2022-07-23T08:43:12;30.00;98.80
12039;DHT22;6080;48.818;9.526;2022-07-23T08:45:43;30.40;97.90
12039;DHT22;6080;48.818;9.526;2022-07-23T08:48:29;30.70;97.00
12039;DHT22;6080;48.818;9.526;2022-07-23T08:50:58;30.10;96.10
12039;DHT22;6080;48.818;9.526;2022-07-23T08:53:26;28.90;97.70
12039;DHT22;6080;48.818;9.526;2022-07-23T08:55:58;28.10;99.20
12039;DHT22;6080;48.818;9.526;2022-07-23T08:58:24;27.70;99.80
12039;DHT22;6080;48.818;9.526;2022-07-23T09:00:50;27.40;99.90
12039;DHT22;6080;48.818;9.526;2022-07-23T09:03:22;27.10;99.90
12039;DHT22;6080;48.818;9.526;2022-07-23T09:05:52;26.60;99.90
12039;DHT22;6080;48.818;9.526;2022-07-23T09:08:23;26.20;99.90
12039;DHT22;6080;48.818;9.526;2022-07-23T09:13:28;26.00;99.90
12039;DHT22;6080;48.818;9.526;2022-07-23T09:18:46;27.50;99.90
12039;DHT22;6080;48.818;9.526;2022-07-23T09:21:28;28.80;99.90
12039;DHT22;6080;48.818;9.526;2022-07-23T09:24:00;30.00;98.30
12039;DHT22;6080;48.818;9.526;2022-07-23T09:29:02;31.30;95.40
12039;DHT22;6080;48.818;9.526;2022-07-23T09:31:44;31.20;94.40
12039;DHT22;6080;48.818;9.526;2022-07-23T09:36:43;32.00;92.30
12039;DHT22;6080;48.818;9.526;2022-07-23T09:39:11;31.90;91.60
12039;DHT22;6080;48.818;9.526;2022-07-23T09:41:46;31.70;91.30
12039;DHT22;6080;48.818;9.526;2022-07-23T09:44:15;32.00;91.10
12039;DHT22;6080;48.818;9.526;2022-07-23T09:46:42;32.20;88.10
12039;DHT22;6080;48.818;9.526;2022-07-23T09:49:17;32.20;88.90
12039;DHT22;6080;48.818;9.526;2022-07-23T09:51:49;31.60;90.00
12039;DHT22;6080;48.818;9.526;2022-07-23T09:54:29;31.60;90.30
12039;DHT22;6080;48.818;9.526;2022-07-23T09:56:59;31.30;90.30
12039;DHT22;6080;48.818;9.526;2022-07-23T09:59:28;31.20;90.50
12039;DHT22;6080;48.818;9.526;2022-07-23T10:01:56;31.50;87.50
12039;DHT22;6080;48.818;9.526;2022-07-23T10:04:24;31.70;86.90
12039;DHT22;6080;48.818;9.526;2022-07-23T10:06:55;32.00;85.10
12039;DHT22;6080;48.818;9.526;2022-07-23T10:09:24;31.90;83.80
12039;DHT22;6080;48.818;9.526;2022-07-23T10:11:52;32.10;86.00
12039;DHT22;6080;48.818;9.526;2022-07-23T10:14:20;32.50;83.10
12039;DHT22;6080;48.818;9.526;2022-07-23T10:16:47;32.40;83.00
12039;DHT22;6080;48.818;9.526;2022-07-23T10:19:13;32.70;81.90
12039;DHT22;6080;48.818;9.526;2022-07-23T10:21:45;33.00;79.40
12039;DHT22;6080;48.818;9.526;2022-07-23T10:24:40;33.00;77.80
12039;DHT22;6080;48.818;9.526;2022-07-23T10:33:51;34.40;77.80
12039;DHT22;6080;48.818;9.526;2022-07-23T10:41:32;35.20;71.40
12039;DHT22;6080;48.818;9.526;2022-07-23T10:46:54;34.40;72.50
12039;DHT22;6080;48.818;9.526;2022-07-23T10:49:40;34.40;72.70
12039;DHT22;6080;48.818;9.526;2022-07-23T10:52:22;34.00;73.60
12039;DHT22;6080;48.818;9.526;2022-07-23T10:57:48;34.80;72.10
12039;DHT22;6080;48.818;9.526;2022-07-23T11:00:15;34.80;70.50
12039;DHT22;6080;48.818;9.526;2022-07-23T11:02:45;34.70;69.50
12039;DHT22;6080;48.818;9.526;2022-07-23T11:05:14;34.90;71.40
12039;DHT22;6080;48.818;9.526;2022-07-23T11:32:02;33.30;66.20
12039;DHT22;6080;48.818;9.526;2022-07-23T11:34:35;33.80;65.20
12039;DHT22;6080;48.818;9.526;2022-07-23T11:37:04;33.80;65.20
12039;DHT22;6080;48.818;9.526;2022-07-23T11:39:31;33.70;64.40
12039;DHT22;6080;48.818;9.526;2022-07-23T11:41:58;33.50;63.90
12039;DHT22;6080;48.818;9.526;2022-07-23T11:47:02;32.50;66.30
12039;DHT22;6080;48.818;9.526;2022-07-23T11:49:29;32.00;67.50
12039;DHT22;6080;48.818;9.526;2022-07-23T11:52:12;31.80;67.40
12039;DHT22;6080;48.818;9.526;2022-07-23T11:57:15;32.50;67.70
12039;DHT22;6080;48.818;9.526;2022-07-23T11:59:41;33.00;66.80
12039;DHT22;6080;48.818;9.526;2022-07-23T12:02:07;33.60;65.60
12039;DHT22;6080;48.818;9.526;2022-07-23T12:04:41;34.60;64.20
12039;DHT22;6080;48.818;9.526;2022-07-23T12:09:52;36.10;60.80
12039;DHT22;6080;48.818;9.526;2022-07-23T12:12:18;36.10;60.70
12039;DHT22;6080;48.818;9.526;2022-07-23T12:17:17;34.70;62.60
12039;DHT22;6080;48.818;9.526;2022-07-23T12:19:43;34.60;61.90
12039;DHT22;6080;48.818;9.526;2022-07-23T12:22:10;34.80;62.50
12039;DHT22;6080;48.818;9.526;2022-07-23T12:24:59;34.40;61.80
12039;DHT22;6080;48.818;9.526;2022-07-23T12:27:26;33.70;61.50
12039;DHT22;6080;48.818;9.526;2022-07-23T12:29:53;33.70;63.10
12039;DHT22;6080;48.818;9.526;2022-07-23T12:32:21;34.10;61.30
12039;DHT22;6080;48.818;9.526;2022-07-23T12:35:07;34.30;60.70
12039;DHT22;6080;48.818;9.526;2022-07-23T12:37:35;35.00;59.80
12039;DHT22;6080;48.818;9.526;2022-07-23T12:45:29;35.70;59.80
12039;DHT22;6080;48.818;9.526;2022-07-23T12:48:07;36.00;58.30
12039;DHT22;6080;48.818;9.526;2022-07-23T12:50:41;36.60;56.60
12039;DHT22;6080;48.818;9.526;2022-07-23T12:55:36;36.40;58.00
12039;DHT22;6080;48.818;9.526;2022-07-23T12:58:06;35.80;58.40
12039;DHT22;6080;48.818;9.526;2022-07-23T13:00:48;35.50;58.60
12039;DHT22;6080;48.818;9.526;2022-07-23T13:05:51;35.90;57.40
12039;DHT22;6080;48.818;9.526;2022-07-23T13:08:17;35.00;59.70
12039;DHT22;6080;48.818;9.526;2022-07-23T13:10:43;35.40;60.00
12039;DHT22;6080;48.818;9.526;2022-07-23T13:13:12;35.60;59.40
12039;DHT22;6080;48.818;9.526;2022-07-23T13:15:38;35.40;57.90
12039;DHT22;6080;48.818;9.526;2022-07-23T13:18:04;35.60;57.40
12039;DHT22;6080;48.818;9.526;2022-07-23T13:20:31;35.70;57.60
12039;DHT22;6080;48.818;9.526;2022-07-23T13:22:58;35.50;58.30
12039;DHT22;6080;48.818;9.526;2022-07-23T13:25:23;35.70;59.30
12039;DHT22;6080;48.818;9.526;2022-07-23T13:27:49;35.90;58.10
12039;DHT22;6080;48.818;9.526;2022-07-23T13:30:15;35.70;58.90
12039;DHT22;6080;48.818;9.526;2022-07-23T13:32:41;36.10;58.60
12039;DHT22;6080;48.818;9.526;2022-07-23T13:35:08;36.10;58.30
12039;DHT22;6080;48.818;9.526;2022-07-23T13:37:34;36.40;58.90
12039;DHT22;6080;48.818;9.526;2022-07-23T13:40:00;36.90;57.90
12039;DHT22;6080;48.818;9.526;2022-07-23T13:42:26;36.60;58.00
12039;DHT22;6080;48.818;9.526;2022-07-23T13:44:53;35.80;58.40
12039;DHT22;6080;48.818;9.526;2022-07-23T13:47:18;36.10;59.10
12039;DHT22;6080;48.818;9.526;2022-07-23T13:49:44;36.30;58.80
12039;DHT22;6080;48.818;9.526;2022-07-23T13:52:10;36.80;58.10
12039;DHT22;6080;48.818;9.526;2022-07-23T13:54:36;36.80;56.50
12039;DHT22;6080;48.818;9.526;2022-07-23T13:57:02;36.70;56.80
12039;DHT22;6080;48.818;9.526;2022-07-23T13:59:27;36.60;57.20
12039;DHT22;6080;48.818;9.526;2022-07-23T14:01:54;37.10;55.40
12039;DHT22;6080;48.818;9.526;2022-07-23T14:04:21;37.60;54.30
12039;DHT22;6080;48.818;9.526;2022-07-23T14:06:46;37.60;54.80
12039;DHT22;6080;48.818;9.526;2022-07-23T14:09:12;37.90;54.70
12039;DHT22;6080;48.818;9.526;2022-07-23T14:11:38;38.00;53.70
12039;DHT22;6080;48.818;9.526;2022-07-23T14:14:04;37.60;55.00
12039;DHT22;6080;48.818;9.526;2022-07-23T14:16:30;37.50;54.70
12039;DHT22;6080;48.818;9.526;2022-07-23T14:18:56;37.20;55.80
12039;DHT22;6080;48.818;9.526;2022-07-23T14:21:22;37.30;55.20
12039;DHT22;6080;48.818;9.526;2022-07-23T14:23:48;37.60;53.80
12039;DHT22;6080;48.818;9.526;2022-07-23T14:26:13;37.20;54.70
12039;DHT22;6080;48.818;9.526;2022-07-23T14:28:40;37.00;55.60
12039;DHT22;6080;48.818;9.526;2022-07-23T14:31:05;37.20;55.40
12039;DHT22;6080;48.818;9.526;2022-07-23T14:33:31;37.70;54.40
12039;DHT22;6080;48.818;9.526;2022-07-23T14:35:57;37.50;54.30
12039;DHT22;6080;48.818;9.526;2022-07-23T14:38:24;37.40;53.80
12039;DHT22;6080;48.818;9.526;2022-07-23T14:40:50;36.80;54.80
12039;DHT22;6080;48.818;9.526;2022-07-23T14:43:16;35.90;55.60
12039;DHT22;6080;48.818;9.526;2022-07-23T14:45:42;35.40;56.70
12039;DHT22;6080;48.818;9.526;2022-07-23T14:48:08;34.90;57.70
12039;DHT22;6080;48.818;9.526;2022-07-23T14:50:33;34.50;58.80
12039;DHT22;6080;48.818;9.526;2022-07-23T14:52:59;33.80;60.00
12039;DHT22;6080;48.818;9.526;2022-07-23T14:55:25;33.50;61.90
12039;DHT22;6080;48.818;9.526;2022-07-23T14:57:51;34.40;59.20
12039;DHT22;6080;48.818;9.526;2022-07-23T15:00:17;35.90;56.70
12039;DHT22;6080;48.818;9.526;2022-07-23T15:02:43;37.70;54.90
12039;DHT22;6080;48.818;9.526;2022-07-23T15:05:09;38.70;52.60
12039;DHT22;6080;48.818;9.526;2022-07-23T15:07:35;38.70;51.90
12039;DHT22;6080;48.818;9.526;2022-07-23T15:10:02;37.20;52.50
12039;DHT22;6080;48.818;9.526;2022-07-23T15:12:28;35.00;55.40
12039;DHT22;6080;48.818;9.526;2022-07-23T15:14:53;33.70;57.80
12039;DHT22;6080;48.818;9.526;2022-07-23T15:17:19;33.50;59.00
12039;DHT22;6080;48.818;9.526;2022-07-23T15:19:45;33.20;58.50
12039;DHT22;6080;48.818;9.526;2022-07-23T15:22:11;32.90;58.50
12039;DHT22;6080;48.818;9.526;2022-07-23T15:24:36;33.50;58.20
12039;DHT22;6080;48.818;9.526;2022-07-23T15:27:02;35.40;55.30
12039;DHT22;6080;48.818;9.526;2022-07-23T15:29:28;36.20;54.40
12039;DHT22;6080;48.818;9.526;2022-07-23T15:31:54;35.50;54.90
12039;DHT22;6080;48.818;9.526;2022-07-23T15:34:19;35.30;55.40
12039;DHT22;6080;48.818;9.526;2022-07-23T15:36:45;35.20;56.30
12039;DHT22;6080;48.818;9.526;2022-07-23T15:39:11;34.60;55.60
12039;DHT22;6080;48.818;9.526;2022-07-23T15:41:37;35.20;56.10
12039;DHT22;6080;48.818;9.526;2022-07-23T15:44:03;34.30;55.90
12039;DHT22;6080;48.818;9.526;2022-07-23T15:46:28;33.10;58.10
12039;DHT22;6080;48.818;9.526;2022-07-23T15:48:55;32.40;60.00
12039;DHT22;6080;48.818;9.526;2022-07-23T15:51:21;31.60;61.00
12039;DHT22;6080;48.818;9.526;2022-07-23T15:53:47;31.10;62.10
12039;DHT22;6080;48.818;9.526;2022-07-23T15:56:13;30.80;63.60
12039;DHT22;6080;48.818;9.526;2022-07-23T15:58:38;30.70;63.50
12039;DHT22;6080;48.818;9.526;2022-07-23T16:01:04;30.90;63.60
12039;DHT22;6080;48.818;9.526;2022-07-23T16:03:35;31.50;62.10
12039;DHT22;6080;48.818;9.526;2022-07-23T16:06:03;32.40;61.10
12039;DHT22;6080;48.818;9.526;2022-07-23T16:08:29;33.90;58.50
12039;DHT22;6080;48.818;9.526;2022-07-23T16:10:55;35.00;57.20
12039;DHT22;6080;48.818;9.526;2022-07-23T16:13:24;35.40;55.50
12039;DHT22;6080;48.818;9.526;2022-07-23T16:15:51;35.10;55.90
12039;DHT22;6080;48.818;9.526;2022-07-23T16:18:17;34.80;56.40
12039;DHT22;6080;48.818;9.526;2022-07-23T16:20:42;34.60;57.60
12039;DHT22;6080;48.818;9.526;2022-07-23T16:23:08;34.50;57.40
12039;DHT22;6080;48.818;9.526;2022-07-23T16:25:34;34.00;57.60
12039;DHT22;6080;48.818;9.526;2022-07-23T16:28:00;33.60;58.30
12039;DHT22;6080;48.818;9.526;2022-07-23T16:30:26;33.10;59.10
12039;DHT22;6080;48.818;9.526;2022-07-23T16:32:52;32.90;59.50
12039;DHT22;6080;48.818;9.526;2022-07-23T16:35:18;32.60;60.00
12039;DHT22;6080;48.818;9.526;2022-07-23T16:37:43;32.20;61.40
12039;DHT22;6080;48.818;9.526;2022-07-23T16:40:11;32.00;61.70
12039;DHT22;6080;48.818;9.526;2022-07-23T16:42:37;31.50;63.50
12039;DHT22;6080;48.818;9.526;2022-07-23T16:45:04;31.00;64.70
12039;DHT22;6080;48.818;9.526;2022-07-23T16:47:30;30.80;65.50
12039;DHT22;6080;48.818;9.526;2022-07-23T16:49:56;30.60;65.50
12039;DHT22;6080;48.818;9.526;2022-07-23T16:52:22;30.40;67.40
12039;DHT22;6080;48.818;9.526;2022-07-23T16:54:48;30.40;67.20
12039;DHT22;6080;48.818;9.526;2022-07-23T16:57:14;30.40;66.60